Lockport-Weather Station Historical Data
 
Daily Summary for December 04, 2020 Units:  English    Metric   Both
Daily Weekly Monthly Yearly Custom
  Current: High: Low: Average:
Temperature: 41.6 °F 43.3 °F 40.7 °F 41.9 °F
Dew Point: 35.9 °F 36.3 °F 29.4 °F 33.5 °F
Humidity: 80% 80.7% 62% 72%
Wind Speed: 4.6mph 9.4mph 1.7mph 5.5mph
Wind Gust: 11mph 22mph - -
WindSW - - SW
Pressure: 29.85 in 29.96 in 29.85 in -
Precipitation: 0.03 in      
 
 
Tabular Data for December 04, 2020
Time Temperature Dew Point Pressure Wind Wind Speed Wind Gust Humidity Rainfall Rate (Hourly) solar
00:04 41.5 °F 29.4 °F 29.96 in SW 6 mph 16 mph 62% 0.00 in W/m2
00:09 41.5 °F 29.4 °F 29.96 in SW 5.1 mph 13 mph 62.2% 0.00 in W/m2
00:14 41.4 °F 29.7 °F 29.96 in SW 5.4 mph 13 mph 63% 0.00 in W/m2
00:19 41.4 °F 29.7 °F 29.95 in SW 6.3 mph 12 mph 63% 0.00 in W/m2
00:24 41.4 °F 29.7 °F 29.96 in SW 6.8 mph 17 mph 63% 0.00 in W/m2
00:29 41.4 °F 29.7 °F 29.95 in SW 7.9 mph 17 mph 63% 0.00 in W/m2
00:34 41.4 °F 29.7 °F 29.95 in SW 6.8 mph 17 mph 63% 0.00 in W/m2
00:39 41.4 °F 29.7 °F 29.95 in SW 9.4 mph 22 mph 63% 0.00 in W/m2
00:44 41.4 °F 29.7 °F 29.95 in SW 6.8 mph 22 mph 63% 0.00 in W/m2
00:49 41.4 °F 29.9 °F 29.94 in SW 7.9 mph 22 mph 63.7% 0.00 in W/m2
00:54 41.3 °F 30 °F 29.94 in SW 7.2 mph 19 mph 64% 0.00 in W/m2
00:59 41.3 °F 30 °F 29.93 in SSW 7 mph 19 mph 64% 0.00 in W/m2
01:04 41.2 °F 30.1 °F 29.93 in SW 6.8 mph 18 mph 64.5% 0.00 in W/m2
01:09 41.2 °F 30.3 °F 29.93 in SW 6.3 mph 16 mph 64.9% 0.00 in W/m2
01:14 41.2 °F 30.3 °F 29.93 in SW 5.7 mph 16 mph 65% 0.00 in W/m2
01:19 41.1 °F 30.3 °F 29.93 in SW 7.1 mph 18 mph 65.3% 0.00 in W/m2
01:24 41.1 °F 30.6 °F 29.93 in SW 5.4 mph 18 mph 66% 0.00 in W/m2
01:29 41 °F 30.5 °F 29.93 in SW 6.6 mph 18 mph 66% 0.00 in W/m2
01:34 41 °F 30.5 °F 29.93 in SW 7.3 mph 18 mph 66% 0.00 in W/m2
01:39 41 °F 30.5 °F 29.93 in SW 6.7 mph 18 mph 66% 0.00 in W/m2
01:44 41 °F 30.8 °F 29.93 in SW 6.4 mph 16 mph 66.7% 0.00 in W/m2
01:49 41 °F 30.9 °F 29.93 in SW 5.8 mph 15 mph 67% 0.00 in W/m2
01:54 41 °F 30.9 °F 29.93 in SW 6.1 mph 15 mph 67% 0.00 in W/m2
01:59 41 °F 31.2 °F 29.93 in SW 4.9 mph 13 mph 67.8% 0.00 in W/m2
02:04 41 °F 31.2 °F 29.93 in SW 6.2 mph 12 mph 68% 0.00 in W/m2
02:09 41 °F 31.3 °F 29.93 in SW 5.4 mph 12 mph 68.3% 0.00 in W/m2
02:14 41.1 °F 31.7 °F 29.93 in SW 5.5 mph 12 mph 69% 0.00 in W/m2
02:19 41.1 °F 31.7 °F 29.93 in SW 6.2 mph 13 mph 69% 0.00 in W/m2
02:24 41.2 °F 31.9 °F 29.93 in SW 5.7 mph 13 mph 69.2% 0.00 in W/m2
02:29 41.3 °F 32.1 °F 29.93 in SW 7.3 mph 14 mph 69.7% 0.00 in W/m2
02:34 41.4 °F 32.3 °F 29.93 in SW 5.9 mph 14 mph 70% 0.00 in W/m2
02:39 41.5 °F 32.4 °F 29.93 in SW 5.2 mph 14 mph 70% 0.00 in W/m2
02:44 41.6 °F 32.5 °F 29.93 in SW 5.2 mph 13 mph 70% 0.00 in W/m2
02:49 41.7 °F 32.6 °F 29.93 in SW 7.5 mph 15 mph 70% 0.00 in W/m2
02:54 41.8 °F 32.4 °F 29.93 in SW 5.6 mph 17 mph 69.1% 0.00 in W/m2
02:59 41.9 °F 32.5 °F 29.92 in SW 5.2 mph 17 mph 69% 0.00 in W/m2
03:04 41.9 °F 32.5 °F 29.92 in SW 6.6 mph 17 mph 69% 0.00 in W/m2
03:09 41.9 °F 32.5 °F 29.92 in SW 5.6 mph 14 mph 69% 0.00 in W/m2
03:14 41.9 °F 32.5 °F 29.92 in SW 7.2 mph 14 mph 69% 0.00 in W/m2
03:19 41.9 °F 32.5 °F 29.92 in SW 4.4 mph 14 mph 69% 0.00 in W/m2
03:24 41.9 °F 32.5 °F 29.92 in SW 6 mph 14 mph 69% 0.00 in W/m2
03:29 41.9 °F 32.5 °F 29.92 in SW 5.9 mph 12 mph 69% 0.00 in W/m2
03:34 41.8 °F 32.4 °F 29.92 in SW 5.3 mph 12 mph 69% 0.00 in W/m2
03:39 41.7 °F 32.3 °F 29.92 in SW 6 mph 15 mph 69% 0.00 in W/m2
03:44 41.6 °F 32.2 °F 29.92 in SW 5.6 mph 15 mph 69% 0.00 in W/m2
03:49 41.6 °F 32.2 °F 29.91 in SW 4.9 mph 15 mph 69.3% 0.00 in W/m2
03:54 41.5 °F 32.4 °F 29.91 in SW 4.7 mph 11 mph 70% 0.00 in W/m2
03:59 41.5 °F 32.4 °F 29.91 in SW 3.5 mph 9 mph 70% 0.00 in W/m2
04:04 41.5 °F 32.4 °F 29.91 in SW 5 mph 9 mph 70% 0.00 in W/m2
04:09 41.4 °F 32.3 °F 29.91 in SW 5.2 mph 14 mph 70% 0.00 in W/m2
04:14 41.4 °F 32.3 °F 29.91 in SW 4.2 mph 14 mph 70% 0.00 in W/m2
04:19 41.4 °F 32.3 °F 29.91 in SW 4.4 mph 14 mph 70% 0.00 in W/m2
04:24 41.4 °F 32.3 °F 29.91 in SW 6.2 mph 12 mph 70% 0.00 in W/m2
04:29 41.4 °F 32.3 °F 29.91 in SW 5.2 mph 13 mph 70% 0.00 in W/m2
04:34 41.4 °F 32.3 °F 29.91 in SW 4.4 mph 13 mph 70% 0.00 in W/m2
04:39 41.4 °F 32.3 °F 29.91 in SW 4.5 mph 13 mph 70% 0.00 in W/m2
04:44 41.4 °F 32.3 °F 29.91 in SW 4.5 mph 11 mph 70% 0.00 in W/m2
04:49 41.4 °F 32.3 °F 29.91 in SW 4.3 mph 11 mph 70% 0.00 in W/m2
04:54 41.4 °F 32.3 °F 29.91 in SW 5.2 mph 13 mph 70% 0.00 in W/m2
04:59 41.4 °F 32.3 °F 29.91 in SW 5 mph 13 mph 70% 0.00 in W/m2
05:04 41.4 °F 32.3 °F 29.91 in SW 4.4 mph 13 mph 70% 0.00 in W/m2
05:09 41.4 °F 32.3 °F 29.91 in WSW 3.4 mph 11 mph 70% 0.00 in W/m2
05:14 41.4 °F 32.4 °F 29.91 in SW 4.2 mph 11 mph 70.2% 0.00 in W/m2
05:19 41.4 °F 32.5 °F 29.90 in SW 3.5 mph 11 mph 70.5% 0.00 in W/m2
05:24 41.4 °F 32.7 °F 29.90 in SW 4.3 mph 11 mph 71% 0.00 in W/m2
05:29 41.5 °F 32.8 °F 29.90 in WSW 3.5 mph 9 mph 71% 0.00 in W/m2
05:34 41.5 °F 32.8 °F 29.90 in SW 3.8 mph 10 mph 71% 0.00 in W/m2
05:39 41.5 °F 32.9 °F 29.90 in SW 2.8 mph 10 mph 71.2% 0.00 in W/m2
05:44 41.5 °F 33.1 °F 29.90 in WSW 4.4 mph 12 mph 72% 0.00 in W/m2
05:49 41.5 °F 33.1 °F 29.90 in WSW 3.4 mph 12 mph 72% 0.00 in W/m2
05:54 41.5 °F 33.1 °F 29.90 in SW 4.6 mph 12 mph 72% 0.00 in W/m2
05:59 41.5 °F 33.3 °F 29.90 in SW 4.2 mph 12 mph 72.5% 0.00 in W/m2
06:04 41.5 °F 33.5 °F 29.90 in SW 4.2 mph 12 mph 73% 0.00 in W/m2
06:09 41.4 °F 33.4 °F 29.90 in WSW 4.1 mph 12 mph 73% 0.00 in W/m2
06:14 41.4 °F 33.7 °F 29.90 in WSW 3.9 mph 12 mph 73.9% 0.00 in W/m2
06:19 41.3 °F 33.6 °F 29.90 in SW 3.6 mph 10 mph 74% 0.00 in W/m2
06:24 41.2 °F 33.5 °F 29.90 in SW 3.6 mph 9 mph 74% 0.00 in W/m2
06:29 41.2 °F 33.6 °F 29.90 in SW 2.5 mph 8 mph 74.3% 0.00 in W/m2
06:34 41.1 °F 33.8 °F 29.90 in SW 2.5 mph 7 mph 75% 0.00 in W/m2
06:39 41.1 °F 33.8 °F 29.90 in WSW 2.7 mph 10 mph 75% 0.01 in W/m2
06:44 41 °F 33.7 °F 29.90 in WSW 2 mph 10 mph 75% 0.01 in W/m2
06:49 40.9 °F 33.6 °F 29.90 in WSW 1.7 mph 10 mph 75% 0.01 in W/m2
06:54 40.9 °F 33.6 °F 29.90 in SW 2.2 mph 6 mph 75% 0.01 in W/m2
06:59 40.9 °F 33.9 °F 29.90 in SSW 2.4 mph 6 mph 75.8% 0.01 in W/m2
07:04 40.9 °F 33.9 °F 29.90 in SW 3.3 mph 9 mph 76% 0.01 in W/m2
07:09 40.8 °F 33.8 °F 29.90 in SW 4.2 mph 10 mph 76.1% 0.01 in W/m2
07:14 40.8 °F 33.8 °F 29.90 in SW 3.4 mph 10 mph 76.1% 0.01 in W/m2
07:19 40.8 °F 34 °F 29.90 in SW 3.9 mph 10 mph 76.7% 0.01 in W/m2
07:24 40.8 °F 33.9 °F 29.90 in SSW 3.3 mph 7 mph 76.6% 0.01 in W/m2
07:29 40.8 °F 34.1 °F 29.90 in SW 4 mph 8 mph 77% 0.01 in W/m2
07:34 40.8 °F 34.3 °F 29.90 in SSW 4.3 mph 8 mph 77.5% 0.01 in W/m2
07:39 40.9 °F 34.6 °F 29.89 in SSW 4.1 mph 10 mph 78% 0.00 in W/m2
07:44 40.9 °F 34.7 °F 29.89 in SSW 3.2 mph 10 mph 78.3% 0.00 in W/m2
07:49 40.8 °F 34.6 °F 29.89 in SSW 4.1 mph 10 mph 78.4% 0.00 in W/m2
07:54 40.8 °F 34.8 °F 29.88 in SSW 5 mph 12 mph 79% 0.00 in W/m2
07:59 40.7 °F 34.7 °F 29.88 in SSW 5.3 mph 12 mph 79% 0.00 in W/m2
08:04 40.8 °F 34.6 °F 29.88 in SW 4.3 mph 12 mph 78.3% 0.00 in W/m2
08:09 40.9 °F 34.7 °F 29.88 in SW 4.7 mph 11 mph 78.3% 0.01 in W/m2
08:14 41 °F 34.7 °F 29.88 in SSW 5.8 mph 19 mph 78% 0.01 in W/m2
08:19 41.2 °F 34.8 °F 29.88 in SW 6.4 mph 19 mph 78% 0.01 in W/m2
08:24 41.3 °F 34.7 °F 29.88 in SSW 5.7 mph 19 mph 77.2% 0.01 in W/m2
08:29 41.5 °F 34.8 °F 29.87 in SSW 6.1 mph 15 mph 77% 0.01 in W/m2
08:34 41.6 °F 34.9 °F 29.87 in SW 6.2 mph 14 mph 77% 0.01 in W/m2
08:39 41.7 °F 34.7 °F 29.87 in SW 6.4 mph 14 mph 76% 0.01 in W/m2
08:44 41.8 °F 34.8 °F 29.87 in SSW 7.1 mph 15 mph 76% 0.01 in W/m2
08:49 41.9 °F 34.6 °F 29.87 in SW 6.6 mph 17 mph 75% 0.01 in W/m2
08:54 41.9 °F 34.6 °F 29.87 in SW 6.2 mph 17 mph 75% 0.01 in W/m2
08:59 42 °F 34.4 °F 29.87 in SSW 7.2 mph 17 mph 74.4% 0.01 in W/m2
09:04 42.1 °F 34.4 °F 29.86 in SW 5.7 mph 14 mph 74% 0.01 in W/m2
09:09 42.1 °F 34.4 °F 29.86 in SW 5.4 mph 14 mph 74% 0.01 in W/m2
09:14 42.2 °F 34.5 °F 29.86 in SSW 5.8 mph 14 mph 74% 0.00 in W/m2
09:19 42.2 °F 34.3 °F 29.86 in SSW 5.6 mph 14 mph 73.5% 0.00 in W/m2
09:24 42.2 °F 34.4 °F 29.87 in SW 6 mph 12 mph 73.8% 0.00 in W/m2
09:29 42.3 °F 34.6 °F 29.87 in SW 7 mph 19 mph 74% 0.00 in W/m2
09:34 42.4 °F 34.7 °F 29.87 in SW 7.3 mph 19 mph 74% 0.00 in W/m2
09:39 42.4 °F 34.7 °F 29.87 in SSW 6.1 mph 19 mph 74% 0.00 in W/m2
09:44 42.5 °F 34.6 °F 29.87 in SSW 8.5 mph 20 mph 73.5% 0.00 in W/m2
09:49 42.5 °F 34.5 °F 29.88 in SW 6.7 mph 20 mph 73% 0.00 in W/m2
09:54 42.6 °F 34.5 °F 29.88 in SW 6.8 mph 20 mph 73% 0.00 in W/m2
09:59 42.6 °F 34.5 °F 29.88 in SW 4.8 mph 13 mph 73% 0.00 in W/m2
10:04 42.6 °F 34.5 °F 29.88 in SW 6.5 mph 15 mph 73% 0.00 in W/m2
10:09 42.6 °F 34.5 °F 29.88 in SW 6.8 mph 15 mph 73% 0.00 in W/m2
10:14 42.7 °F 34.6 °F 29.88 in SW 6.8 mph 16 mph 73% 0.00 in W/m2
10:19 42.8 °F 34.7 °F 29.88 in SW 7.6 mph 16 mph 73% 0.00 in W/m2
10:24 42.9 °F 34.8 °F 29.88 in SW 6.4 mph 16 mph 73% 0.00 in W/m2
10:29 42.9 °F 34.7 °F 29.88 in SW 6.8 mph 17 mph 72.5% 0.00 in W/m2
10:34 43 °F 34.6 °F 29.88 in SW 6.9 mph 17 mph 72% 0.00 in W/m2
10:39 43.1 °F 34.5 °F 29.88 in SW 7.1 mph 17 mph 71.6% 0.00 in W/m2
10:44 43.1 °F 34.4 °F 29.88 in SW 7.9 mph 17 mph 71.3% 0.00 in W/m2
10:49 43.2 °F 34.4 °F 29.88 in SW 7.8 mph 18 mph 71% 0.00 in W/m2
10:54 43.2 °F 34.4 °F 29.88 in SW 7.6 mph 18 mph 71% 0.00 in W/m2
10:59 43.2 °F 34.4 °F 29.88 in SW 6.2 mph 18 mph 71% 0.00 in W/m2
11:04 43.2 °F 34.4 °F 29.88 in SW 5.4 mph 15 mph 71% 0.00 in W/m2
11:09 43.2 °F 34.6 °F 29.88 in SW 7.4 mph 15 mph 71.4% 0.00 in W/m2
11:14 43.2 °F 34.6 °F 29.88 in SW 6.4 mph 15 mph 71.5% 0.00 in W/m2
11:19 43.2 °F 34.8 °F 29.88 in SSW 7 mph 19 mph 71.9% 0.00 in W/m2
11:24 43.2 °F 34.4 °F 29.87 in SW 6.6 mph 19 mph 71% 0.00 in W/m2
11:29 43.2 °F 34.4 °F 29.87 in SW 8.4 mph 19 mph 71% 0.00 in W/m2
11:34 43.1 °F 34.7 °F 29.87 in SW 7.4 mph 17 mph 72% 0.00 in W/m2
11:39 43.1 °F 34.7 °F 29.87 in SW 7.3 mph 17 mph 72% 0.00 in W/m2
11:44 43.1 °F 34.7 °F 29.87 in SW 5.6 mph 16 mph 72% 0.00 in W/m2
11:49 43.1 °F 34.7 °F 29.87 in SW 5.7 mph 16 mph 72% 0.00 in W/m2
11:54 43.1 °F 34.7 °F 29.87 in SW 7.7 mph 16 mph 72% 0.00 in W/m2
11:59 43.1 °F 35 °F 29.86 in SW 5.2 mph 16 mph 72.9% 0.00 in W/m2
12:04 43.1 °F 35 °F 29.86 in SW 5.8 mph 16 mph 73% 0.00 in W/m2
12:09 43.1 °F 35.1 °F 29.86 in SW 6.4 mph 15 mph 73.3% 0.00 in W/m2
12:14 43.1 °F 35.4 °F 29.86 in SW 4.8 mph 15 mph 74% 0.00 in W/m2
12:19 43.1 °F 35.4 °F 29.86 in SW 5.2 mph 15 mph 74% 0.00 in W/m2
12:24 43.1 °F 35.6 °F 29.86 in SW 4.8 mph 12 mph 74.6% 0.00 in W/m2
12:29 43.1 °F 35.7 °F 29.86 in SW 6.3 mph 16 mph 75% 0.00 in W/m2
12:34 43.2 °F 35.8 °F 29.86 in SW 5.5 mph 16 mph 75% 0.00 in W/m2
12:39 43.2 °F 35.8 °F 29.86 in SW 6.6 mph 16 mph 75% 0.00 in W/m2
12:44 43.2 °F 35.8 °F 29.86 in SW 8.5 mph 14 mph 75% 0.00 in W/m2
12:49 43.2 °F 35.8 °F 29.85 in SW 7.4 mph 21 mph 75% 0.00 in W/m2
12:54 43.2 °F 35.8 °F 29.85 in SW 7.3 mph 21 mph 75% 0.00 in W/m2
12:59 43.2 °F 35.8 °F 29.85 in SW 6.8 mph 21 mph 75% 0.00 in W/m2
13:04 43.3 °F 35.8 °F 29.85 in SW 6.2 mph 20 mph 74.8% 0.00 in W/m2
13:09 43.3 °F 35.7 °F 29.85 in SW 7.5 mph 19 mph 74.3% 0.00 in W/m2
13:14 43.3 °F 35.6 °F 29.85 in SW 5.2 mph 19 mph 74% 0.00 in W/m2
13:19 43.3 °F 35.8 °F 29.85 in SW 6.3 mph 19 mph 74.8% 0.00 in W/m2
13:24 43.2 °F 35.8 °F 29.85 in SW 6.2 mph 18 mph 75% 0.00 in W/m2
13:29 43.1 °F 35.7 °F 29.85 in SW 6.2 mph 18 mph 75% 0.00 in W/m2
13:34 42.9 °F 35.7 °F 29.85 in SW 4.4 mph 18 mph 75.6% 0.00 in W/m2
13:39 42.8 °F 35.8 °F 29.86 in WSW 4.7 mph 18 mph 76% 0.00 in W/m2
13:44 42.6 °F 35.8 °F 29.86 in WSW 4.8 mph 12 mph 76.7% 0.00 in W/m2
13:49 42.5 °F 36 °F 29.85 in SW 4.4 mph 12 mph 77.7% 0.00 in W/m2
13:54 42.3 °F 35.9 °F 29.85 in SW 4.2 mph 12 mph 78% 0.00 in W/m2
13:59 42.1 °F 36.1 °F 29.85 in WSW 4.9 mph 12 mph 78.8% 0.00 in W/m2
14:04 42 °F 36 °F 29.85 in WSW 3.6 mph 12 mph 79% 0.00 in W/m2
14:09 41.9 °F 36.2 °F 29.85 in SW 3.9 mph 12 mph 79.9% 0.00 in W/m2
14:14 41.8 °F 36.1 °F 29.85 in SW 4.1 mph 9 mph 80% 0.00 in W/m2
14:19 41.8 °F 36.2 °F 29.85 in SW 4.2 mph 10 mph 80.2% 0.01 in W/m2
14:24 41.8 °F 36.3 °F 29.85 in SW 5.8 mph 10 mph 80.7% 0.01 in W/m2
14:29 41.7 °F 36 °F 29.85 in SW 4.9 mph 11 mph 80% 0.01 in W/m2
14:34 41.6 °F 35.9 °F 29.85 in SW 4.6 mph 11 mph 80% 0.01 in W/m2
Lockport, New York, USA
Compliments of Weather Underground - 2 mb